SAC weather

San António Airport
Cunduacan, Tabasco, Mexico

Public forecast

Using degrees Celsius for public forecast. Weather courtesy of forecast.io.

METAR (pilot weather report)

Closest report is Carlos Rovirosa Pérez International Airport, 23.7 nm (43.9 km) E. Retrieved 2019/06/15 20:40 UTC (1 minute ago):

MMVA 152040Z 00000KT 7SM BKN015 BKN030CB BKN200 32/23 A2985 RMK SLP105 57028 967 8/903 DSNT CBS N SSW

TAF (pilot weather forecast)

Closest forecast is Carlos Rovirosa Pérez International Airport, 23.7 nm (43.9 km) E. Retrieved 2019/06/15 18:09 UTC (3 hours ago):

TAF MMVA 151707Z 1518/1618 12006KT 6SM HZ SCT020 BKN200 FM152100 09012KT 6SM HZ SCT020CB OVC080 TEMPO 1522/1602 4SM TSRA BKN020CB FM160300 12005KT 6SM HZ BKN015 OVC080 TEMPO 1603/1607 5SM -RA FM160800 00000KT 5SM HZ BKN015 BKN080 TEMPO 1611/1615 3SM BR HZ